sensor_id;sensor_type;location;lat;lon;timestamp;pressure;altitude;pressure_sealevel;temperature;humidity
52653;BME280;39353;42.864;12.014;2022-10-16T00:00:58;97971.12;;;22.87;59.20
52653;BME280;39353;42.864;12.014;2022-10-16T00:03:35;97972.64;;;22.87;59.12
52653;BME280;39353;42.864;12.014;2022-10-16T00:06:03;97975.42;;;22.87;59.17
52653;BME280;39353;42.864;12.014;2022-10-16T00:08:46;97977.79;;;22.85;59.12
52653;BME280;39353;42.864;12.014;2022-10-16T00:11:30;97977.07;;;22.85;59.31
52653;BME280;39353;42.864;12.014;2022-10-16T00:14:13;97976.58;;;22.85;59.34
52653;BME280;39353;42.864;12.014;2022-10-16T00:16:42;97980.08;;;22.85;59.23
52653;BME280;39353;42.864;12.014;2022-10-16T00:19:11;97984.88;;;22.84;59.13
52653;BME280;39353;42.864;12.014;2022-10-16T00:21:40;97987.45;;;22.84;59.08
52653;BME280;39353;42.864;12.014;2022-10-16T00:24:21;97991.73;;;22.83;59.15
52653;BME280;39353;42.864;12.014;2022-10-16T00:26:49;97996.25;;;22.84;59.13
52653;BME280;39353;42.864;12.014;2022-10-16T00:29:31;97991.86;;;22.84;59.12
52653;BME280;39353;42.864;12.014;2022-10-16T00:32:12;97991.79;;;22.83;59.01
52653;BME280;39353;42.864;12.014;2022-10-16T00:34:53;97997.47;;;22.83;59.17
52653;BME280;39353;42.864;12.014;2022-10-16T00:37:35;97996.42;;;22.83;59.10
52653;BME280;39353;42.864;12.014;2022-10-16T00:40:02;97992.42;;;22.83;59.04
52653;BME280;39353;42.864;12.014;2022-10-16T00:42:43;97992.63;;;22.82;59.04
52653;BME280;39353;42.864;12.014;2022-10-16T00:45:11;97993.48;;;22.81;59.05
52653;BME280;39353;42.864;12.014;2022-10-16T00:47:46;97993.58;;;22.81;59.06
52653;BME280;39353;42.864;12.014;2022-10-16T00:50:33;97996.91;;;22.81;59.15
52653;BME280;39353;42.864;12.014;2022-10-16T00:53:17;97991.31;;;22.80;59.12
52653;BME280;39353;42.864;12.014;2022-10-16T00:55:45;97994.05;;;22.80;59.01
52653;BME280;39353;42.864;12.014;2022-10-16T00:58:12;97997.85;;;22.79;59.19
52653;BME280;39353;42.864;12.014;2022-10-16T01:00:39;97998.06;;;22.79;59.18
52653;BME280;39353;42.864;12.014;2022-10-16T01:03:33;97997.09;;;22.78;59.18
52653;BME280;39353;42.864;12.014;2022-10-16T01:12:45;98000.86;;;22.77;58.95
52653;BME280;39353;42.864;12.014;2022-10-16T01:15:37;98001.83;;;22.77;58.93
52653;BME280;39353;42.864;12.014;2022-10-16T01:18:35;98002.04;;;22.76;58.99
52653;BME280;39353;42.864;12.014;2022-10-16T01:21:29;98002.75;;;22.76;59.10
52653;BME280;39353;42.864;12.014;2022-10-16T01:24:33;97999.36;;;22.76;58.98
52653;BME280;39353;42.864;12.014;2022-10-16T01:27:22;98001.88;;;22.76;58.98
52653;BME280;39353;42.864;12.014;2022-10-16T01:30:02;98006.63;;;22.76;58.85
52653;BME280;39353;42.864;12.014;2022-10-16T01:33:01;98010.43;;;22.75;58.96
52653;BME280;39353;42.864;12.014;2022-10-16T01:35:58;98008.66;;;22.75;58.98
52653;BME280;39353;42.864;12.014;2022-10-16T01:38:44;98006.64;;;22.75;59.07
52653;BME280;39353;42.864;12.014;2022-10-16T01:41:30;98010.05;;;22.75;58.91
52653;BME280;39353;42.864;12.014;2022-10-16T01:44:06;98004.25;;;22.75;58.90
52653;BME280;39353;42.864;12.014;2022-10-16T01:46:52;97999.58;;;22.74;58.87
52653;BME280;39353;42.864;12.014;2022-10-16T01:49:38;97998.02;;;22.74;58.89
52653;BME280;39353;42.864;12.014;2022-10-16T01:52:15;97996.34;;;22.73;58.88
52653;BME280;39353;42.864;12.014;2022-10-16T01:54:49;97996.98;;;22.72;58.87
52653;BME280;39353;42.864;12.014;2022-10-16T01:57:36;97996.98;;;22.72;59.04
52653;BME280;39353;42.864;12.014;2022-10-16T02:00:12;97990.64;;;22.72;58.85
52653;BME280;39353;42.864;12.014;2022-10-16T02:02:55;97992.98;;;22.72;58.97
52653;BME280;39353;42.864;12.014;2022-10-16T02:05:46;97991.44;;;22.72;59.08
52653;BME280;39353;42.864;12.014;2022-10-16T02:08:29;97993.04;;;22.72;58.95
52653;BME280;39353;42.864;12.014;2022-10-16T02:11:12;97989.73;;;22.71;58.99
52653;BME280;39353;42.864;12.014;2022-10-16T02:13:48;97987.99;;;22.70;58.92
52653;BME280;39353;42.864;12.014;2022-10-16T02:16:43;97988.38;;;22.70;58.87
52653;BME280;39353;42.864;12.014;2022-10-16T02:19:26;97990.54;;;22.69;58.75
52653;BME280;39353;42.864;12.014;2022-10-16T02:22:11;97996.08;;;22.70;58.83
52653;BME280;39353;42.864;12.014;2022-10-16T02:24:58;97995.26;;;22.69;58.90
52653;BME280;39353;42.864;12.014;2022-10-16T02:28:16;98000.55;;;22.69;59.02
52653;BME280;39353;42.864;12.014;2022-10-16T02:30:54;98005.98;;;22.70;58.96
52653;BME280;39353;42.864;12.014;2022-10-16T02:33:25;98003.45;;;22.69;58.83
52653;BME280;39353;42.864;12.014;2022-10-16T02:35:57;98004.80;;;22.69;58.88
52653;BME280;39353;42.864;12.014;2022-10-16T02:38:39;98005.98;;;22.68;58.89
52653;BME280;39353;42.864;12.014;2022-10-16T02:41:23;98004.18;;;22.68;58.98
52653;BME280;39353;42.864;12.014;2022-10-16T02:44:04;97998.47;;;22.67;58.84
52653;BME280;39353;42.864;12.014;2022-10-16T02:46:45;97998.42;;;22.68;58.86
52653;BME280;39353;42.864;12.014;2022-10-16T02:49:26;98001.59;;;22.67;58.85
52653;BME280;39353;42.864;12.014;2022-10-16T02:52:07;98002.55;;;22.67;58.83
52653;BME280;39353;42.864;12.014;2022-10-16T02:54:33;98003.65;;;22.67;58.77
52653;BME280;39353;42.864;12.014;2022-10-16T02:57:00;98006.59;;;22.67;58.82
52653;BME280;39353;42.864;12.014;2022-10-16T02:59:27;98005.34;;;22.65;58.71
52653;BME280;39353;42.864;12.014;2022-10-16T03:01:54;98008.08;;;22.65;58.79
52653;BME280;39353;42.864;12.014;2022-10-16T03:04:35;98006.81;;;22.64;58.89
52653;BME280;39353;42.864;12.014;2022-10-16T03:07:16;98005.54;;;22.64;58.84
52653;BME280;39353;42.864;12.014;2022-10-16T03:09:43;98006.80;;;22.64;58.86
52653;BME280;39353;42.864;12.014;2022-10-16T03:12:11;98006.77;;;22.63;58.78
52653;BME280;39353;42.864;12.014;2022-10-16T03:14:38;98006.06;;;22.63;58.81
52653;BME280;39353;42.864;12.014;2022-10-16T03:17:07;98004.63;;;22.63;58.82
52653;BME280;39353;42.864;12.014;2022-10-16T03:19:48;98005.73;;;22.62;58.89
52653;BME280;39353;42.864;12.014;2022-10-16T03:22:29;98007.04;;;22.62;58.78
52653;BME280;39353;42.864;12.014;2022-10-16T03:25:10;98010.14;;;22.62;58.69
52653;BME280;39353;42.864;12.014;2022-10-16T03:27:51;98008.45;;;22.62;58.66
52653;BME280;39353;42.864;12.014;2022-10-16T03:30:19;98010.64;;;22.63;58.73
52653;BME280;39353;42.864;12.014;2022-10-16T03:32:46;98011.92;;;22.61;58.76
52653;BME280;39353;42.864;12.014;2022-10-16T03:35:27;98009.98;;;22.61;58.67
52653;BME280;39353;42.864;12.014;2022-10-16T03:38:08;98010.91;;;22.61;58.83
52653;BME280;39353;42.864;12.014;2022-10-16T03:40:35;98013.02;;;22.60;58.80
52653;BME280;39353;42.864;12.014;2022-10-16T03:43:02;98016.00;;;22.61;58.75
52653;BME280;39353;42.864;12.014;2022-10-16T03:45:29;98014.24;;;22.60;58.67
52653;BME280;39353;42.864;12.014;2022-10-16T03:48:11;98020.47;;;22.62;58.77
52653;BME280;39353;42.864;12.014;2022-10-16T03:50:52;98023.13;;;22.61;58.72
52653;BME280;39353;42.864;12.014;2022-10-16T03:53:33;98026.95;;;22.61;58.63
52653;BME280;39353;42.864;12.014;2022-10-16T03:56:01;98024.97;;;22.61;58.69
52653;BME280;39353;42.864;12.014;2022-10-16T03:58:42;98027.58;;;22.60;58.59
52653;BME280;39353;42.864;12.014;2022-10-16T04:01:24;98025.27;;;22.60;58.60
52653;BME280;39353;42.864;12.014;2022-10-16T04:04:05;98026.86;;;22.60;58.61
52653;BME280;39353;42.864;12.014;2022-10-16T04:06:47;98028.61;;;22.60;58.46
52653;BME280;39353;42.864;12.014;2022-10-16T04:09:14;98033.57;;;22.59;58.59
52653;BME280;39353;42.864;12.014;2022-10-16T04:11:55;98031.42;;;22.59;58.64
52653;BME280;39353;42.864;12.014;2022-10-16T04:14:37;98034.80;;;22.58;58.75
52653;BME280;39353;42.864;12.014;2022-10-16T04:17:05;98032.70;;;22.58;58.64
52653;BME280;39353;42.864;12.014;2022-10-16T04:19:49;98041.62;;;22.58;58.52
52653;BME280;39353;42.864;12.014;2022-10-16T04:22:16;98040.30;;;22.58;58.54
52653;BME280;39353;42.864;12.014;2022-10-16T04:24:43;98041.88;;;22.57;58.57
52653;BME280;39353;42.864;12.014;2022-10-16T04:27:11;98049.20;;;22.57;58.44
52653;BME280;39353;42.864;12.014;2022-10-16T04:29:39;98046.80;;;22.56;58.50
52653;BME280;39353;42.864;12.014;2022-10-16T04:32:20;98048.23;;;22.56;58.57
52653;BME280;39353;42.864;12.014;2022-10-16T04:35:01;98047.19;;;22.56;58.46
52653;BME280;39353;42.864;12.014;2022-10-16T04:37:32;98050.77;;;22.55;58.61
52653;BME280;39353;42.864;12.014;2022-10-16T04:40:01;98050.98;;;22.55;58.63
52653;BME280;39353;42.864;12.014;2022-10-16T04:42:29;98053.84;;;22.54;58.50
52653;BME280;39353;42.864;12.014;2022-10-16T04:44:56;98053.13;;;22.54;58.60
52653;BME280;39353;42.864;12.014;2022-10-16T04:47:39;98060.27;;;22.53;58.57
52653;BME280;39353;42.864;12.014;2022-10-16T04:50:07;98055.58;;;22.53;58.65
52653;BME280;39353;42.864;12.014;2022-10-16T04:52:34;98055.83;;;22.53;58.45
52653;BME280;39353;42.864;12.014;2022-10-16T04:55:03;98054.90;;;22.53;58.48
52653;BME280;39353;42.864;12.014;2022-10-16T04:57:44;98052.59;;;22.52;58.52
52653;BME280;39353;42.864;12.014;2022-10-16T05:00:25;98056.54;;;22.53;58.43
52653;BME280;39353;42.864;12.014;2022-10-16T05:03:06;98059.48;;;22.53;58.52
52653;BME280;39353;42.864;12.014;2022-10-16T05:05:36;98057.85;;;22.53;58.48
52653;BME280;39353;42.864;12.014;2022-10-16T05:08:03;98053.67;;;22.53;58.38
52653;BME280;39353;42.864;12.014;2022-10-16T05:10:45;98056.20;;;22.53;58.52
52653;BME280;39353;42.864;12.014;2022-10-16T05:13:12;98060.16;;;22.53;58.53
52653;BME280;39353;42.864;12.014;2022-10-16T05:15:54;98058.94;;;22.53;58.46
52653;BME280;39353;42.864;12.014;2022-10-16T05:18:22;98058.56;;;22.53;58.43
52653;BME280;39353;42.864;12.014;2022-10-16T05:20:48;98060.25;;;22.53;58.44
52653;BME280;39353;42.864;12.014;2022-10-16T05:23:17;98064.13;;;22.52;58.41
52653;BME280;39353;42.864;12.014;2022-10-16T05:25:55;98063.40;;;22.52;58.42
52653;BME280;39353;42.864;12.014;2022-10-16T05:28:27;98066.40;;;22.52;58.52
52653;BME280;39353;42.864;12.014;2022-10-16T05:31:10;98061.58;;;22.51;58.48
52653;BME280;39353;42.864;12.014;2022-10-16T05:33:37;98062.67;;;22.51;58.27
52653;BME280;39353;42.864;12.014;2022-10-16T05:36:18;98061.41;;;22.51;58.42
52653;BME280;39353;42.864;12.014;2022-10-16T05:38:45;98058.89;;;22.51;58.48
52653;BME280;39353;42.864;12.014;2022-10-16T05:41:26;98061.16;;;22.50;58.47
52653;BME280;39353;42.864;12.014;2022-10-16T05:43:54;98060.52;;;22.51;58.36
52653;BME280;39353;42.864;12.014;2022-10-16T05:46:35;98061.88;;;22.50;58.49
52653;BME280;39353;42.864;12.014;2022-10-16T05:49:16;98061.66;;;22.50;58.41
52653;BME280;39353;42.864;12.014;2022-10-16T05:51:44;98065.06;;;22.51;58.32
52653;BME280;39353;42.864;12.014;2022-10-16T05:54:11;98061.88;;;22.50;58.31
52653;BME280;39353;42.864;12.014;2022-10-16T05:56:38;98062.77;;;22.50;58.39
52653;BME280;39353;42.864;12.014;2022-10-16T05:59:06;98064.77;;;22.50;58.39
52653;BME280;39353;42.864;12.014;2022-10-16T06:01:47;98066.64;;;22.50;58.40
52653;BME280;39353;42.864;12.014;2022-10-16T06:04:14;98076.30;;;22.50;58.29
52653;BME280;39353;42.864;12.014;2022-10-16T06:06:41;98078.75;;;22.50;58.47
52653;BME280;39353;42.864;12.014;2022-10-16T06:09:23;98076.70;;;22.50;58.47
52653;BME280;39353;42.864;12.014;2022-10-16T06:12:04;98081.39;;;22.50;58.43
52653;BME280;39353;42.864;12.014;2022-10-16T06:14:32;98082.27;;;22.50;58.32
52653;BME280;39353;42.864;12.014;2022-10-16T06:17:14;98086.73;;;22.51;58.37
52653;BME280;39353;42.864;12.014;2022-10-16T06:19:55;98088.82;;;22.52;58.37
52653;BME280;39353;42.864;12.014;2022-10-16T06:22:36;98094.66;;;22.53;57.85
52653;BME280;39353;42.864;12.014;2022-10-16T06:25:18;98097.43;;;22.50;57.56
52653;BME280;39353;42.864;12.014;2022-10-16T06:27:45;98096.71;;;22.49;57.15
52653;BME280;39353;42.864;12.014;2022-10-16T06:30:26;98095.30;;;22.47;57.13
52653;BME280;39353;42.864;12.014;2022-10-16T06:33:07;98098.11;;;22.46;56.93
52653;BME280;39353;42.864;12.014;2022-10-16T06:35:34;98096.81;;;22.46;56.78
52653;BME280;39353;42.864;12.014;2022-10-16T06:38:15;98097.23;;;22.46;56.77
52653;BME280;39353;42.864;12.014;2022-10-16T06:40:58;98102.91;;;22.46;56.39
52653;BME280;39353;42.864;12.014;2022-10-16T06:43:40;98111.16;;;22.47;56.39
52653;BME280;39353;42.864;12.014;2022-10-16T06:46:23;98116.77;;;22.46;56.58
52653;BME280;39353;42.864;12.014;2022-10-16T06:48:53;98120.59;;;22.47;56.63
52653;BME280;39353;42.864;12.014;2022-10-16T06:51:22;98122.67;;;22.50;56.33
52653;BME280;39353;42.864;12.014;2022-10-16T06:54:04;98126.30;;;22.48;56.13
52653;BME280;39353;42.864;12.014;2022-10-16T06:56:45;98130.23;;;22.48;56.08
52653;BME280;39353;42.864;12.014;2022-10-16T06:59:25;98132.77;;;22.47;56.27
52653;BME280;39353;42.864;12.014;2022-10-16T07:01:53;98133.25;;;22.46;56.49
52653;BME280;39353;42.864;12.014;2022-10-16T07:04:20;98137.54;;;22.47;56.42
52653;BME280;39353;42.864;12.014;2022-10-16T07:07:02;98145.80;;;22.43;55.22
52653;BME280;39353;42.864;12.014;2022-10-16T07:09:44;98145.13;;;22.26;54.82
52653;BME280;39353;42.864;12.014;2022-10-16T07:12:12;98145.29;;;22.13;54.92
52653;BME280;39353;42.864;12.014;2022-10-16T07:14:53;98154.18;;;22.02;55.00
52653;BME280;39353;42.864;12.014;2022-10-16T07:17:21;98151.93;;;21.98;55.07
52653;BME280;39353;42.864;12.014;2022-10-16T07:19:48;98157.70;;;22.01;55.32
52653;BME280;39353;42.864;12.014;2022-10-16T07:22:30;98160.05;;;22.01;54.78
52653;BME280;39353;42.864;12.014;2022-10-16T07:24:57;98161.86;;;22.04;55.17
52653;BME280;39353;42.864;12.014;2022-10-16T07:27:25;98167.89;;;22.08;55.29
52653;BME280;39353;42.864;12.014;2022-10-16T07:30:09;98166.08;;;22.10;55.49
52653;BME280;39353;42.864;12.014;2022-10-16T07:32:50;98169.36;;;22.14;55.27
52653;BME280;39353;42.864;12.014;2022-10-16T07:35:17;98171.84;;;22.16;55.68
52653;BME280;39353;42.864;12.014;2022-10-16T07:37:46;98172.67;;;22.17;55.15
52653;BME280;39353;42.864;12.014;2022-10-16T07:40:27;98172.16;;;22.20;55.25
52653;BME280;39353;42.864;12.014;2022-10-16T07:43:08;98174.82;;;22.27;55.37
52653;BME280;39353;42.864;12.014;2022-10-16T07:45:50;98173.14;;;22.34;55.37
52653;BME280;39353;42.864;12.014;2022-10-16T07:48:17;98175.15;;;22.36;55.47
52653;BME280;39353;42.864;12.014;2022-10-16T07:50:45;98176.09;;;22.39;55.61
52653;BME280;39353;42.864;12.014;2022-10-16T07:53:26;98181.70;;;22.40;55.11
52653;BME280;39353;42.864;12.014;2022-10-16T07:56:09;98185.04;;;22.40;54.78
52653;BME280;39353;42.864;12.014;2022-10-16T07:58:36;98181.44;;;22.38;54.58
52653;BME280;39353;42.864;12.014;2022-10-16T08:01:19;98185.94;;;22.38;54.27
52653;BME280;39353;42.864;12.014;2022-10-16T08:03:49;98183.52;;;22.37;54.25
52653;BME280;39353;42.864;12.014;2022-10-16T08:06:36;98190.45;;;22.37;54.58
52653;BME280;39353;42.864;12.014;2022-10-16T08:09:17;98190.60;;;22.38;55.08
52653;BME280;39353;42.864;12.014;2022-10-16T08:11:58;98193.88;;;22.39;55.06
52653;BME280;39353;42.864;12.014;2022-10-16T08:14:25;98195.50;;;22.37;55.29
52653;BME280;39353;42.864;12.014;2022-10-16T08:16:52;98193.19;;;22.37;55.10
52653;BME280;39353;42.864;12.014;2022-10-16T08:19:20;98199.80;;;22.44;54.86
52653;BME280;39353;42.864;12.014;2022-10-16T08:21:47;98197.36;;;22.52;55.34
52653;BME280;39353;42.864;12.014;2022-10-16T08:24:14;98199.15;;;22.55;55.39
52653;BME280;39353;42.864;12.014;2022-10-16T08:26:55;98201.20;;;22.59;56.29
52653;BME280;39353;42.864;12.014;2022-10-16T08:29:23;98206.48;;;22.63;56.57
52653;BME280;39353;42.864;12.014;2022-10-16T08:32:04;98207.95;;;22.66;56.73
52653;BME280;39353;42.864;12.014;2022-10-16T08:34:32;98208.48;;;22.69;57.29
52653;BME280;39353;42.864;12.014;2022-10-16T08:37:14;98211.93;;;22.70;57.27
52653;BME280;39353;42.864;12.014;2022-10-16T08:39:41;98216.02;;;22.71;56.52
52653;BME280;39353;42.864;12.014;2022-10-16T08:48:20;98223.48;;;22.74;57.73
52653;BME280;39353;42.864;12.014;2022-10-16T08:51:07;98216.66;;;22.74;58.34
52653;BME280;39353;42.864;12.014;2022-10-16T08:54:28;98218.84;;;22.71;58.34
52653;BME280;39353;42.864;12.014;2022-10-16T08:56:55;98223.14;;;22.66;58.18
52653;BME280;39353;42.864;12.014;2022-10-16T08:59:23;98221.71;;;22.62;57.92
52653;BME280;39353;42.864;12.014;2022-10-16T09:01:51;98220.66;;;22.58;57.82
52653;BME280;39353;42.864;12.014;2022-10-16T09:07:50;98230.04;;;22.51;58.02
52653;BME280;39353;42.864;12.014;2022-10-16T09:13:08;98228.95;;;22.43;58.09
52653;BME280;39353;42.864;12.014;2022-10-16T09:21:48;98238.30;;;22.33;59.55
52653;BME280;39353;42.864;12.014;2022-10-16T09:24:19;98243.30;;;22.34;59.68
52653;BME280;39353;42.864;12.014;2022-10-16T09:27:00;98247.79;;;22.35;59.87
52653;BME280;39353;42.864;12.014;2022-10-16T09:29:42;98243.48;;;22.31;59.13
52653;BME280;39353;42.864;12.014;2022-10-16T09:32:14;98246.09;;;22.30;59.09
52653;BME280;39353;42.864;12.014;2022-10-16T09:35:00;98246.45;;;22.35;59.28
52653;BME280;39353;42.864;12.014;2022-10-16T09:37:29;98250.63;;;22.41;59.44
52653;BME280;39353;42.864;12.014;2022-10-16T09:40:26;98242.91;;;22.47;59.33
52653;BME280;39353;42.864;12.014;2022-10-16T09:46:21;98247.15;;;22.56;58.92
52653;BME280;39353;42.864;12.014;2022-10-16T09:48:50;98248.45;;;22.60;59.11
52653;BME280;39353;42.864;12.014;2022-10-16T09:54:30;98243.32;;;22.65;59.19
52653;BME280;39353;42.864;12.014;2022-10-16T09:57:11;98236.16;;;22.66;59.15
52653;BME280;39353;42.864;12.014;2022-10-16T10:03:10;98245.38;;;22.59;58.75
52653;BME280;39353;42.864;12.014;2022-10-16T10:09:39;98233.84;;;22.54;58.50
52653;BME280;39353;42.864;12.014;2022-10-16T10:12:21;98232.45;;;22.52;58.32
52653;BME280;39353;42.864;12.014;2022-10-16T10:14:58;98231.09;;;22.50;58.12
52653;BME280;39353;42.864;12.014;2022-10-16T10:20:35;98231.80;;;22.49;58.12
52653;BME280;39353;42.864;12.014;2022-10-16T10:23:24;98233.59;;;22.47;57.88
52653;BME280;39353;42.864;12.014;2022-10-16T10:26:11;98231.02;;;22.47;57.88
52653;BME280;39353;42.864;12.014;2022-10-16T10:32:48;98231.44;;;22.46;57.80
52653;BME280;39353;42.864;12.014;2022-10-16T11:02:41;98225.85;;;22.45;55.77
52653;BME280;39353;42.864;12.014;2022-10-16T11:05:51;98222.39;;;22.45;56.19
52653;BME280;39353;42.864;12.014;2022-10-16T11:09:17;98221.42;;;22.47;56.04
52653;BME280;39353;42.864;12.014;2022-10-16T11:15:39;98214.16;;;22.52;55.84
52653;BME280;39353;42.864;12.014;2022-10-16T11:18:46;98212.06;;;22.57;55.92
52653;BME280;39353;42.864;12.014;2022-10-16T11:28:45;98212.88;;;22.79;56.42
52653;BME280;39353;42.864;12.014;2022-10-16T11:39:50;98207.44;;;23.25;59.20
52653;BME280;39353;42.864;12.014;2022-10-16T11:42:32;98201.64;;;23.34;60.21
52653;BME280;39353;42.864;12.014;2022-10-16T11:45:03;98203.25;;;23.42;60.83
52653;BME280;39353;42.864;12.014;2022-10-16T11:47:48;98200.07;;;23.48;61.32
52653;BME280;39353;42.864;12.014;2022-10-16T11:53:48;98199.89;;;23.49;62.51
52653;BME280;39353;42.864;12.014;2022-10-16T11:56:21;98193.44;;;23.41;59.28
52653;BME280;39353;42.864;12.014;2022-10-16T11:59:23;98197.90;;;23.32;57.47
52653;BME280;39353;42.864;12.014;2022-10-16T12:05:58;98195.79;;;23.21;56.47
52653;BME280;39353;42.864;12.014;2022-10-16T12:08:51;98194.95;;;23.16;57.69
52653;BME280;39353;42.864;12.014;2022-10-16T12:11:34;98191.35;;;23.14;56.42
52653;BME280;39353;42.864;12.014;2022-10-16T12:17:43;98189.49;;;23.08;55.80
52653;BME280;39353;42.864;12.014;2022-10-16T12:23:20;98190.05;;;23.02;55.11
52653;BME280;39353;42.864;12.014;2022-10-16T12:28:43;98191.09;;;23.00;54.85
52653;BME280;39353;42.864;12.014;2022-10-16T12:31:45;98189.46;;;23.02;55.34
52653;BME280;39353;42.864;12.014;2022-10-16T12:44:33;98179.30;;;23.11;55.15
52653;BME280;39353;42.864;12.014;2022-10-16T13:10:00;98185.59;;;23.26;55.00
52653;BME280;39353;42.864;12.014;2022-10-16T13:13:11;98184.46;;;23.28;54.90
52653;BME280;39353;42.864;12.014;2022-10-16T13:18:56;98187.20;;;23.19;55.53
52653;BME280;39353;42.864;12.014;2022-10-16T13:29:33;98188.42;;;23.23;56.51
52653;BME280;39353;42.864;12.014;2022-10-16T13:32:07;98189.80;;;23.24;56.46
52653;BME280;39353;42.864;12.014;2022-10-16T13:34:44;98188.65;;;23.26;56.49
52653;BME280;39353;42.864;12.014;2022-10-16T13:37:23;98190.82;;;23.28;56.33
52653;BME280;39353;42.864;12.014;2022-10-16T13:39:50;98192.57;;;23.30;56.49
52653;BME280;39353;42.864;12.014;2022-10-16T13:42:27;98194.89;;;23.31;56.34
52653;BME280;39353;42.864;12.014;2022-10-16T13:44:56;98196.90;;;23.31;56.29
52653;BME280;39353;42.864;12.014;2022-10-16T13:47:25;98197.48;;;23.29;56.26
52653;BME280;39353;42.864;12.014;2022-10-16T13:50:06;98198.27;;;23.29;55.99
52653;BME280;39353;42.864;12.014;2022-10-16T13:52:36;98196.59;;;23.29;56.32
52653;BME280;39353;42.864;12.014;2022-10-16T13:58:14;98194.35;;;23.29;56.38
52653;BME280;39353;42.864;12.014;2022-10-16T14:03:47;98194.27;;;23.33;56.76
52653;BME280;39353;42.864;12.014;2022-10-16T14:06:17;98191.31;;;23.34;56.43
52653;BME280;39353;42.864;12.014;2022-10-16T14:08:50;98192.97;;;23.32;56.00
52653;BME280;39353;42.864;12.014;2022-10-16T14:11:25;98190.91;;;23.32;56.33
52653;BME280;39353;42.864;12.014;2022-10-16T14:13:53;98189.92;;;23.33;56.28
52653;BME280;39353;42.864;12.014;2022-10-16T14:16:27;98193.46;;;23.34;55.45
52653;BME280;39353;42.864;12.014;2022-10-16T14:19:02;98189.92;;;23.35;55.94
52653;BME280;39353;42.864;12.014;2022-10-16T14:21:32;98193.45;;;23.34;55.78
52653;BME280;39353;42.864;12.014;2022-10-16T14:24:11;98194.17;;;23.34;56.24
52653;BME280;39353;42.864;12.014;2022-10-16T14:26:44;98195.23;;;23.34;55.32
52653;BME280;39353;42.864;12.014;2022-10-16T14:29:17;98192.61;;;23.35;55.27
52653;BME280;39353;42.864;12.014;2022-10-16T14:32:05;98199.94;;;23.36;55.93
52653;BME280;39353;42.864;12.014;2022-10-16T14:34:37;98200.50;;;23.39;55.87
52653;BME280;39353;42.864;12.014;2022-10-16T14:37:26;98197.50;;;23.39;56.05
52653;BME280;39353;42.864;12.014;2022-10-16T14:39:54;98195.50;;;23.38;55.96
52653;BME280;39353;42.864;12.014;2022-10-16T14:42:25;98194.02;;;23.38;55.85
52653;BME280;39353;42.864;12.014;2022-10-16T14:44:55;98193.13;;;23.40;55.70
52653;BME280;39353;42.864;12.014;2022-10-16T14:47:26;98191.89;;;23.40;55.83
52653;BME280;39353;42.864;12.014;2022-10-16T14:49:54;98190.73;;;23.40;55.84
52653;BME280;39353;42.864;12.014;2022-10-16T14:52:24;98193.91;;;23.40;55.83
52653;BME280;39353;42.864;12.014;2022-10-16T14:54:51;98189.66;;;23.41;55.87
52653;BME280;39353;42.864;12.014;2022-10-16T14:57:25;98191.80;;;23.41;55.87
52653;BME280;39353;42.864;12.014;2022-10-16T14:59:55;98189.30;;;23.42;55.65
52653;BME280;39353;42.864;12.014;2022-10-16T15:02:25;98192.17;;;23.42;55.91
52653;BME280;39353;42.864;12.014;2022-10-16T15:04:55;98190.11;;;23.43;55.87
52653;BME280;39353;42.864;12.014;2022-10-16T15:07:22;98193.52;;;23.43;55.61
52653;BME280;39353;42.864;12.014;2022-10-16T15:09:51;98198.70;;;23.42;55.91
52653;BME280;39353;42.864;12.014;2022-10-16T15:12:18;98194.96;;;23.42;56.00
52653;BME280;39353;42.864;12.014;2022-10-16T15:14:46;98198.36;;;23.42;56.02
52653;BME280;39353;42.864;12.014;2022-10-16T15:17:13;98203.39;;;23.42;56.05
52653;BME280;39353;42.864;12.014;2022-10-16T15:19:40;98205.11;;;23.42;56.25
52653;BME280;39353;42.864;12.014;2022-10-16T15:22:10;98206.96;;;23.44;56.35
52653;BME280;39353;42.864;12.014;2022-10-16T15:24:38;98207.64;;;23.45;55.87
52653;BME280;39353;42.864;12.014;2022-10-16T15:27:07;98212.30;;;23.47;55.54
52653;BME280;39353;42.864;12.014;2022-10-16T15:29:34;98210.05;;;23.48;55.47
52653;BME280;39353;42.864;12.014;2022-10-16T15:32:01;98212.52;;;23.49;55.23
52653;BME280;39353;42.864;12.014;2022-10-16T15:34:29;98211.88;;;23.51;55.20
52653;BME280;39353;42.864;12.014;2022-10-16T15:36:56;98211.83;;;23.51;54.15
52653;BME280;39353;42.864;12.014;2022-10-16T15:39:24;98214.18;;;23.47;53.14
52653;BME280;39353;42.864;12.014;2022-10-16T15:41:52;98217.02;;;23.43;52.64
52653;BME280;39353;42.864;12.014;2022-10-16T15:44:21;98212.79;;;23.40;51.87
52653;BME280;39353;42.864;12.014;2022-10-16T15:46:54;98215.58;;;23.38;52.80
52653;BME280;39353;42.864;12.014;2022-10-16T15:49:21;98215.81;;;23.36;52.88
52653;BME280;39353;42.864;12.014;2022-10-16T15:51:48;98217.38;;;23.35;53.00
52653;BME280;39353;42.864;12.014;2022-10-16T15:54:18;98218.64;;;23.35;53.42
52653;BME280;39353;42.864;12.014;2022-10-16T15:56:48;98218.30;;;23.37;53.77
52653;BME280;39353;42.864;12.014;2022-10-16T15:59:16;98220.93;;;23.39;53.64
52653;BME280;39353;42.864;12.014;2022-10-16T16:01:43;98220.11;;;23.37;52.83
52653;BME280;39353;42.864;12.014;2022-10-16T16:04:10;98223.28;;;23.35;53.39
52653;BME280;39353;42.864;12.014;2022-10-16T16:06:41;98221.02;;;23.33;53.29
52653;BME280;39353;42.864;12.014;2022-10-16T16:09:13;98219.41;;;23.34;54.19
52653;BME280;39353;42.864;12.014;2022-10-16T16:11:42;98221.30;;;23.36;54.17
52653;BME280;39353;42.864;12.014;2022-10-16T16:14:16;98220.37;;;23.36;54.27
52653;BME280;39353;42.864;12.014;2022-10-16T16:16:45;98222.69;;;23.41;54.84